Terminal Aerodrome Forecast
Issued by NWS Jacksonville, FL

Current Version | Previous Version | Text Only | Print | Product List | Glossary On
Versions: 1 2 3 4 5 6 7 8 9 10 11 12 13 14 15 16 17 18 19 20
061
FTUS42 KJAX 291720
TAFSSI
TAF
KSSI 291720Z 2918/3018 30012G18KT P6SM SCT040 SCT250
     FM300000 29006KT P6SM SCT250=

USA.gov is the U.S. government's official web portal to all federal, state and local government web resources and services.